x

Fowey Rock, Fl (fwyf1) Weather Station

5:00pm - Fri 1st Jul 2016 All times are EDT. -4 hours from GMT.

  • Wind
    15mph, 16mph gusts
  • Sea Temp 85°f
  • Air Temp 85°f
  • Sea Pressure 1017.7mb
  • Fowey Rock, Fl
  • Fowey Rock, Fl

More Historic Weather Station data

Upgrade to MSW Pro to gain access to the past 30 days of data for over 8000 Wavebouys and Weather Stations around the globe.

Join Pro

Comparision Forecast

View Surf forecast
   
Fri 07/01 5:00pm 15 16 mph 1017.7mb 85f 85f
4:00pm 11 13 mph 1018mb 85f 85f
3:00pm 10
mph
1018mb 87f 85f
2:00pm 8 9 mph 1018.8mb 87f 85f
1:00pm 7 8 mph 1019.3mb 87f 89f
12:00pm 8 9 mph 1019.4mb 86f 88f
11:00am 8 9 mph 1018.9mb 86f 84f
10:00am 9 10 mph 1018.8mb 85f 86f
9:00am 9 10 mph 1018.4mb 85f 85f
8:00am 11 13 mph 1017.8mb 85f 83f
7:00am 17 18 mph 1017.1mb 85f 82f
6:00am 10 11 mph 1017mb 85f 83f
5:00am 11
mph
1016.6mb 85f 83f
4:00am 11 13 mph 1016.8mb 85f 82f
3:00am 11 13 mph 1017mb 86f 83f
2:00am 17
mph
1017.6mb 86f 83f
1:00am 9 10 mph 1018.4mb 86f 82f
12:00am 9 10 mph 1018.8mb 86f 83f
Thu 06/30 11:00pm 6 7 mph 1018.6mb 86f 83f
10:00pm 6 7 mph 1018.8mb 86f 83f
9:00pm 8 9 mph 1018.4mb 85f 82f
8:00pm 13 14 mph 1017.9mb 85f 80f
7:00pm 5 6 mph 1017.6mb 85f 85f
6:00pm 11
mph
1016.6mb 86f 85f
5:00pm 13 14 mph 1016mb 86f 84f
4:00pm 14 15 mph 1016.3mb 87f 84f
3:00pm 13 14 mph 1016.7mb 86f 84f
2:00pm 11 13 mph 1017mb 86f 84f
1:00pm 13
mph
1017.4mb 87f 84f
12:00pm 14 15 mph 1017.8mb 86f 84f
11:00am 8 9 mph 1017.8mb 86f 85f
10:00am 8 9 mph 1017.4mb 85f 84f
9:00am 11
mph
1017.1mb 85f 84f
8:00am 14 15 mph 1017mb 84f 82f
7:00am 11 13 mph 1016.6mb 84f 82f
6:00am 13 14 mph 1016mb 84f 83f
5:00am 13 14 mph 1015.9mb 84f 83f
4:00am 13 14 mph 1015.8mb 85f 83f
3:00am 22
mph
1016.3mb 85f 82f
2:00am 11 13 mph 1016.8mb 86f 83f
1:00am 10 11 mph 1017.4mb 86f 83f
12:00am 10 11 mph 1017.8mb 86f 84f
Wed 06/29 11:00pm 11
mph
1017.9mb 86f 84f
10:00pm 11 13 mph 1017.4mb 86f 84f
9:00pm 11 13 mph 1016.8mb 86f 84f
8:00pm 8 9 mph 1016.2mb 85f 84f
7:00pm 11
mph
1015.5mb 85f 84f
6:00pm 10
mph
1015.8mb 85f 84f
5:00pm 10 11 mph 1015.4mb 85f 84f
4:00pm 9 10 mph 1015.8mb 85f 83f
3:00pm 13 15 mph 1016.3mb 85f 85f
2:00pm 8 9 mph 1016.7mb 85f 84f
1:00pm 9
mph
1017.2mb 86f 83f
12:00pm 6 7 mph 1017.5mb 85f 83f
11:00am  -  mph 1017.8mb 85f 86f
10:00am 3
mph
1017.4mb 85f 87f
9:00am 8 9 mph 1017.3mb 85f 84f
8:00am 5 6 mph 1016.8mb 85f 83f
7:00am 3 5 mph 1016.4mb 84f 82f
6:00am 3 5 mph 1016.2mb 84f 83f
5:00am 5
mph
1016.3mb 84f 83f
4:00am 6 7 mph 1015.9mb 84f 83f
3:00am 10 11 mph 1015.8mb 84f 83f
2:00am 10 11 mph 1016.1mb 84f 83f
1:00am 9 10 mph 1016.6mb 85f 83f
12:00am 10 11 mph 1017.1mb 85f 83f
Tue 06/28 11:00pm 10 11 mph 1017.3mb 85f 83f
10:00pm 9 10 mph 1016.6mb 86f 83f
9:00pm 11 13 mph 1016.1mb 86f 83f
8:00pm 9 10 mph 1015.9mb 86f 83f
7:00pm 10 11 mph 1015.6mb 85f 84f
6:00pm 10 11 mph 1015.5mb 85f 84f
5:00pm 7
mph
1015.9mb 85f 83f
4:00pm 9 10 mph 1016.1mb 85f 83f
3:00pm 8 9 mph 1016.7mb 85f 83f
2:00pm 6 7 mph 1017.1mb 85f 83f
1:00pm 8 9 mph 1017.6mb 85f 83f
12:00pm 8 9 mph 1017.8mb 85f 82f
11:00am 2
mph
1017.8mb 85f 83f
10:00am 2 3 mph 1017.9mb 85f 84f
9:00am  -  mph 1017.6mb 85f 84f
8:00am  -  1 mph 1017.3mb 85f 85f
7:00am 3 5 mph 1016.9mb 84f 83f
6:00am 3 5 mph 1016.7mb 84f 82f
5:00am 3
mph
1016.2mb 84f 82f
4:00am 3
mph
1016.4mb 84f 83f
3:00am 2
mph
1016.8mb 84f 83f
2:00am 6 7 mph 1016.9mb 84f 83f
1:00am 8 9 mph 1017.1mb 84f 83f
12:00am 11 13 mph 1017.2mb 85f 83f
Mon 06/27 11:00pm 10 11 mph 1016.7mb 85f 83f